BFIBOEING FIELD/KING COUNTY INTL
METARs for nearby airports:
N 0 21' KBFI 201953Z 04004KT 6SM HZ OVC010 12/08 A3019
SE 4 32' KRNT 201953Z 35008KT 6SM OVC007 11/08 A3018
S 4 432' KSEA 201953Z 36008KT 3SM HZ OVC006 12/08 A3018
W 18 444' KPWT 201956Z 05006KT 4SM BR OVC003 10/09 A3019
SW 19 294' KTIW 201953Z 01009KT 2SM BR OVC006 10/08 A3018
N 22 607' KPAE 201953Z 31005KT 1/4SM FG OVC001 08/08 A3020
S 24 322' KTCM 201958Z 05006KT 7SM OVC007 10/10 A3018
S 25 537' KPLU 201955Z 00000KT 3SM BR OVC004 09/09 A3018
S 29 300' KGRF 201858Z 34006KT 9SM OVC006 10/10 A3019
N 38 141' KAWO 201956Z 32005KT 4SM BR OVC003 08/08 A3020
SW 38 272' KSHN 201953Z 05005KT 8SM OVC005 10/08 A3017
SW 41 207' KOLM 201954Z 03008KT 5SM BR OVC006 10/08 A3018
N 51 47' KNUW 201956Z 29007KT 5SM HZ SCT008 13/09 A3024
N 56 145' KBVS 201955Z 30004KT 10SM FEW009 FEW013 A3020
NW 57 13' KNOW 201930Z 13003KT 10SM CLR 11/09 A3022
SW 58 177' KCLS 201955Z VRB04KT 8SM BKN012 12/10 A3017
NW 59 291' KCLM 201953Z 11006KT 8SM CLR 16/08 A3021
NW 66 112' KFHR 201953Z 36006KT 7SM CLR 14/09 A3021
SW 74 17' KHQM 201953Z 02006KT 5SM HZ OVC009 12/09 A3017
N 74 34' KORS 201955Z 35003KT 7SM OVC005 11/10 A3020
N 76 171' KBLI 201953Z 29004KT 6SM HZ SCT010 13/08 A3020
E 78 1763' KELN 201953Z 00000KT 6SM HZ CLR 15/04 A3018
NW 80 64' CYYJ 201900Z 02004KT 360V120 20SM FEW009 SCT018 SCT026 SCT250 12/09 A3022
E 85 1248' KEAT 201955Z 00000KT 10SM CLR 14/03 A3018
S 88 20' KKLS 201956Z 35009KT 10SM CLR 12/08 A3015
SE 92 1098' KYKM 201953Z 17003KT 10SM CLR 16/03 A3017
W 94 193' KUIL 201953Z 00000KT 10SM CLR 17/09 A3016
TAFs for nearby airports:
N 0 21' KBFI TAF KBFI 201743Z 2018/2118 00000KT 4SM BR BKN006
  FM202000 33004KT 6SM BR SCT010
  FM202100 33005KT P6SM SKC
  FM210300 VRB03KT P6SM SKC
  FM211000 00000KT 3SM BR SCT006
  FM211200 00000KT 2SM BR OVC004
S 4 432' KSEA TAF KSEA 201743Z 2018/2124 01010KT 1SM BR BKN004
  TEMPO 2018/2021 01005KT 1/4SM FG VV002
  FM202100 35008KT 2SM BR BKN007
  FM202200 35008KT P6SM FEW020
  FM210300 03004KT P6SM SCT015
  FM210800 01004KT 3SM BR BKN003
  FM211300 01004KT 1/4SM FG VV001
  FM212000 35006KT 2SM BR BKN008
  FM212200 35007KT P6SM FEW020
W 18 444' KPWT TAF KPWT 201743Z 2018/2118 03007KT 1/4SM -DZ FG OVC002
  FM202000 02007KT 2SM BR BKN006
  FM202200 36005KT P6SM FEW020
  FM210600 03004KT 4SM BR SKC
  FM211000 03004KT 1/4SM FG VV001
N 22 607' KPAE TAF KPAE 201743Z 2018/2118 33004KT 1/4SM FG VV001
  FM202100 35004KT 4SM BR BKN006
  FM202200 35005KT 5SM BR BKN012
  FM202300 25005KT P6SM FEW025
  FM210900 01003KT 2SM BR BKN001
  FM211000 01003KT 1/4SM FG VV001
S 24 322' KTCM TAF KTCM 201307Z 2013/2119 15006KT 0400 FG BKN003 QNH3021INS
  BECMG 2017/2018 15006KT 1600 BR BKN003 QNH3019INS
  TEMPO 2018/2019 3200 BR
  BECMG 2019/2020 VRB06KT 4800 BR BKN003 QNH3016INS
  BECMG 2020/2021 03009KT 9999 NSW SKC QNH3004INS
  BECMG 2105/2106 15006KT 4800 BR FEW002 QNH3004INS
  BECMG 2107/2108 15006KT 1600 BR FEW002 QNH3003INS
  BECMG 2108/2109 15006KT 0400 FG VV002 QNH3001INS
  BECMG 2017/2018 15006KT 1600 BR VV002 QNH3003INS TX14/2023Z TN07/2013Z
S 29 300' KGRF TAF TAF KGRF 201308Z 2013/2119 15006KT 0400 FG BKN002 QNH3021INS
  BECMG 2017/2018 15006KT 1600 BR BKN002 QNH3019INS
  TEMPO 2018/2019 3200 BR
  BECMG 2019/2020 VRB06KT 4800 BR BKN003 QNH3016INS
  BECMG 2020/2021 03009KT 9999 NSW SKC QNH3004INS
  BECMG 2105/2106 15006KT 4800 BR FEW002 QNH3004INS
  BECMG 2107/2108 15006KT 1600 BR FEW002 QNH3003INS
  BECMG 2108/2109 15006KT 0400 FG VV002 QNH3001INS
  BECMG 2017/2018 15006KT 1600 BR VV002 QNH3003INS TX14/2023Z TN08/2013Z
SW 41 207' KOLM TAF KOLM 201743Z 2018/2118 05004KT 2SM BR OVC003
  TEMPO 2018/2021 VRB03KT 1/2SM FG VV002
  FM202100 01003KT 5SM BR BKN009
  FM202200 01004KT P6SM FEW020
  FM210500 VRB03KT 2SM BR BKN004
  FM210600 00000KT 1/4SM FG VV001
N 51 47' KNUW TAF COR KNUW 2015/2115 VRB06KT 9999 OVC005 QNH3023INS
  TEMPO 2015/2019 4800 BR
  FM201830 VRB06KT 9999 SCT010 BKN040 QNH3020INS
  FM211000 VRB06KT 9000 MIFG BKN005 QNH3025INS
  TEMPO 2112/2115 33004KT 0800 BCFG OVC003 T13/2022Z T09/2111Z COR 1713 FS30024
NW 59 291' KCLM TAF KCLM 201743Z 2018/2118 VRB04KT P6SM VCFG SCT004
  FM201900 05007KT P6SM SKC
  FM210300 05006KT P6SM SKC
SW 74 17' KHQM TAF KHQM 201743Z 2018/2118 04006KT 2SM BR OVC003
  FM202100 VRB03KT 5SM BR SCT008
  FM202200 30005KT P6SM SKC
  FM210400 03005KT 5SM BR BKN003
  FM210800 05005KT 2SM BR OVC002
N 76 171' KBLI TAF KBLI 201743Z 2018/2118 VRB04KT 1/4SM FG VV002
  FM202000 31005KT 3SM BR BKN007
  FM202100 31005KT P6SM FEW020
  FM210300 VRB03KT P6SM SKC
  FM210800 04004KT P6SM BCFG SKC
  FM211100 01004KT 2SM BR BKN003
  FM211300 01004KT 1/4SM FG VV002
E 85 1248' KEAT KEAT 201730Z 2018/2118 VRB04KT P6SM SKC
  FM210400 30007KT P6SM FEW250
SE 92 1098' KYKM TAF KYKM 201720Z 2018/2118 VRB05KT P6SM SKC
  FM210300 27005KT P6SM SKC
  FM211200 28004KT 6SM BR SKC
Area forecast:
000
FAUS46 KKCI 101945
FA6W  
SFOC FA 101945
SYNOPSIS AND VFR CLDS/WX
SYNOPSIS VALID UNTIL 111400
CLDS/WX VALID UNTIL 110800...OTLK VALID 110800-111400
WA OR CA AND CSTL WTRS
.
SEE AIRMET SIERRA FOR IFR CONDS AND MTN OBSCN.
TS IMPLY SEV OR GTR TURB SEV ICE LLWS AND IFR CONDS.
NON MSL HGTS DENOTED BY AGL OR CIG.
.
SYNOPSIS...UPR LVL TROF WAS LOCATED NR 130W. MOIST SWLY FLOW
EXTDS FROM PAC NW EWD INTO NRN ROCKIES. HIGH PRES RIDGE WAS OVR
MUCH OF THE REST OF THE AREA. BY 14Z...UPR LVL TROF WILL EXTD
FROM WA-OR SWD INTO CA.  ..STREIB..
.
WA CASCDS WWD
CSTL SXNS
CSTLN-INLAND...SCT-BKN025 BKN035-050 TOPS 120-140. ISOL -SHRA.
   OTLK...MVFR CIGS SHRA BR.
PUGET SOUND-INTR VLY...SCT-BKN020 BKN-OVC035-050 TOPS 160 BKN CI.
   WDLY SCT -SHRA. OTLK...MVFR CIGS SHRA.
CASCDS...BKN-OVC050-070 TOPS FL180. BKN CI ABV. WDLY SCT -SHRA.
   OTLK...MVFR CIGS SHRA.
.
WA E OF CASCDS
CNTRL WA...SCT140 OVC CI. BECMG 2302 SCT080 BKN120 LYRD FL240.
   OTLK...VFR.
ERN WA...SCT-BKN140-160 LYRD FL240. BECMG 0508 BKN080 OVC120
   LYRD FL240 ISOL -SHRA DVLPG. OTLK...VFR.
.
OR CASCDS WWD
CSTL SXNS
CSTLN-INLAND...SCT-BKN020 BKN-OVC035-050 TOPS FL180. WDLY SCT
   -SHRA. OTLK...MVFR CIGS SHRA.
WILLAMETTE VLY/SWRN INTR...SCT-BKN020 BKN-OVC035-050 TOPS FL180.
   WDLY SCT -SHRA. OTLK...MVFR CIGS SHRA.
CASCDS...SCT-BKN060 BKN-OVC080-100 TOPS FL180 ISOL -SHRA.
   OTLK...MVFR CIGS SHRA.
.
OR E OF CASCDS
CNTRL...SCT100-120 BKN150 LYRD FL240. OTLK...VFR.
ERN...SCT130-150 BKN CI. BECMG 0205 OVC120-140 LYRD FL240.
   OTLK...VFR.
.
NRN CA...STS-SAC-TVL LN NWD
CSTL SXNS...
   FOT NWD...SCT025 BKN CI ABV. BECMG 0205 SCT020 OVC050 TOPS
      160. ISOL -SHRA. OTLK...IFR CIGS.
   S OF FOT...SCT-BKN010 TOPS 030-040. OTLK...IFR CIGS.
REST OF AREA...SKC OCNL SCT CI. OCNL VYS 3-5SM FU HZ.
   OTLK...VFR.
SAC VLY...
   NRN AND CNTRL SXNS...SKC. OTLK...VFR.
   SRN SXNS...SKC. OCNL VIS 3-5SM FU HZ. OTLK...MVFR FU HZ.
SHASTA-SISKIYOUS-NERN CA...
NRN SIERRAS...SKC OCNL SCT CI. WINDS SLY G25KT. OTLK...VFR WIND.
.
CNTRL CA
CSTL SXNS...
   CSTLN...SKC OCNL SCT010. BECMG 0508 OCNL CIGS BKN-SCT010 TOPS
      020-030. OTLK...IFR CIGS.
   INLAND...SKC. OTLK...VFR BECMG 1114 IFR CIGS BR.
SAN JOAQUIN VLY...SKC. OTLK...VFR.
SRN SIERRAS..SKC. OTLK...VFR.
.
SRN CA..VBG-NID-60NNW BIH LN SWD
CSTL SXNS...
   CSTLN...
      EXTRM SRN SXNS...SKC. BECMG 0205 SCT010. BECMG 0508 CIGS
         BKN-OVC010 TOPS 030. OTLK...IFR CIGS.
      REST OF AREA...SKC. OTLK...VFR BECMG 0811 IFR CIGS BR.
   INLAND...SKC OCNL FEW CI. OTLK...VFR.
INTR MTNS-MOJAVE-SRN DESERTS...SKC OCNL FEW CI. OTLK...VFR.
.
CSTL WTRS
WA...SCT-BKN035-050 TOPS 100-120. ISOL -SHRA. OTLK...VFR.
OR...
NWRN HLF...SCT-BKN035-050 TOPS 100-120. ISOL -SHRA. OTLK...VFR.
SERN HLF...SCT-BKN025 BKN035-050 TOPS FL180 BKN CI ABV. WDLY SCT
   -SHRA. OTLK...MVFR CIGS SHRA.
CA...
NRN CA...
   FOT NWD...SCT025 BKN CI ABV. BECMG 0205 SCT020 OVC050 TOPS
      160. ISOL -SHRA. OTLK...IFR CIGS.
   S OF FOT...SCT-BKN010 TOPS 030-040. OTLK...IFR CIGS.
CNTRL CA...SCT-BKN010 TOPS 030-040. OTLK...IFR CIGS.
SRN CA...
   OUTER CSTL WTRS...CIGS BKN010-020 TOPS 030-050.
      OTLK...IFR CIGS.
   ADJ CSTL WTRS...SKC. OCNL AGL SCT010. OTLK...VFR BECMG 0811
      IFR CIGS BR.
.
THE AREA FORECAST WILL TERMINATE AT 2359Z ON 10 OCTOBER 2017. IN
PLACE OF THE AREA FORECAST...PLEASE SEE THE GRAPHICAL FORECAST AT
WWW.AVIATIONWEATHER.GOV/GFA. GRAPHICAL AND TEXT AIRMETS WILL
CONTINUE AS REGULARLY SCHEDULED.
....

Shortcut to this page: http://wxbay.com.

Data may contain errors.